sensor_id;sensor_type;location;lat;lon;timestamp;P1;durP1;ratioP1;P2;durP2;ratioP2
46751;SDS011;32497;48.936;9.270;2024-03-29T00:04:52;0.33;;;0.20;;
46751;SDS011;32497;48.936;9.270;2024-03-29T00:09:53;0.00;;;0.00;;
46751;SDS011;32497;48.936;9.270;2024-03-29T00:14:54;0.30;;;0.00;;
46751;SDS011;32497;48.936;9.270;2024-03-29T00:19:57;0.00;;;0.00;;
46751;SDS011;32497;48.936;9.270;2024-03-29T00:24:59;0.00;;;0.00;;
46751;SDS011;32497;48.936;9.270;2024-03-29T00:30:00;0.07;;;0.07;;
46751;SDS011;32497;48.936;9.270;2024-03-29T00:35:03;0.40;;;0.00;;
46751;SDS011;32497;48.936;9.270;2024-03-29T00:40:05;0.73;;;0.30;;
46751;SDS011;32497;48.936;9.270;2024-03-29T00:45:07;0.13;;;0.10;;
46751;SDS011;32497;48.936;9.270;2024-03-29T00:50:10;0.10;;;0.00;;
46751;SDS011;32497;48.936;9.270;2024-03-29T00:55:12;0.30;;;0.10;;
46751;SDS011;32497;48.936;9.270;2024-03-29T01:00:13;1.30;;;0.23;;
46751;SDS011;32497;48.936;9.270;2024-03-29T01:05:16;0.00;;;0.00;;
46751;SDS011;32497;48.936;9.270;2024-03-29T01:10:18;0.00;;;0.00;;
46751;SDS011;32497;48.936;9.270;2024-03-29T01:15:19;0.20;;;0.03;;
46751;SDS011;32497;48.936;9.270;2024-03-29T01:20:22;8.73;;;0.10;;
46751;SDS011;32497;48.936;9.270;2024-03-29T01:25:23;0.00;;;0.00;;
46751;SDS011;32497;48.936;9.270;2024-03-29T01:30:24;0.00;;;0.00;;
46751;SDS011;32497;48.936;9.270;2024-03-29T01:35:27;0.33;;;0.10;;
46751;SDS011;32497;48.936;9.270;2024-03-29T01:40:28;0.13;;;0.10;;
46751;SDS011;32497;48.936;9.270;2024-03-29T01:45:30;0.10;;;0.00;;
46751;SDS011;32497;48.936;9.270;2024-03-29T01:50:34;0.10;;;0.00;;
46751;SDS011;32497;48.936;9.270;2024-03-29T01:55:37;0.30;;;0.30;;
46751;SDS011;32497;48.936;9.270;2024-03-29T02:00:41;0.00;;;0.00;;
46751;SDS011;32497;48.936;9.270;2024-03-29T02:05:50;0.00;;;0.00;;
46751;SDS011;32497;48.936;9.270;2024-03-29T02:10:52;0.00;;;0.00;;
46751;SDS011;32497;48.936;9.270;2024-03-29T02:15:56;0.33;;;0.17;;
46751;SDS011;32497;48.936;9.270;2024-03-29T02:21:00;0.03;;;0.00;;
46751;SDS011;32497;48.936;9.270;2024-03-29T02:26:04;0.00;;;0.00;;
46751;SDS011;32497;48.936;9.270;2024-03-29T02:31:06;1.43;;;0.77;;
46751;SDS011;32497;48.936;9.270;2024-03-29T02:36:09;0.00;;;0.00;;
46751;SDS011;32497;48.936;9.270;2024-03-29T02:41:15;0.00;;;0.00;;
46751;SDS011;32497;48.936;9.270;2024-03-29T02:46:17;0.40;;;0.10;;
46751;SDS011;32497;48.936;9.270;2024-03-29T02:51:20;0.07;;;0.00;;
46751;SDS011;32497;48.936;9.270;2024-03-29T02:56:23;0.10;;;0.10;;
46751;SDS011;32497;48.936;9.270;2024-03-29T03:01:27;0.20;;;0.20;;
46751;SDS011;32497;48.936;9.270;2024-03-29T03:06:29;0.20;;;0.00;;
46751;SDS011;32497;48.936;9.270;2024-03-29T03:11:33;0.00;;;0.00;;
46751;SDS011;32497;48.936;9.270;2024-03-29T03:16:35;0.03;;;0.00;;
46751;SDS011;32497;48.936;9.270;2024-03-29T03:21:38;0.00;;;0.00;;
46751;SDS011;32497;48.936;9.270;2024-03-29T03:26:41;0.10;;;0.10;;
46751;SDS011;32497;48.936;9.270;2024-03-29T03:31:43;0.40;;;0.17;;
46751;SDS011;32497;48.936;9.270;2024-03-29T03:36:46;0.10;;;0.00;;
46751;SDS011;32497;48.936;9.270;2024-03-29T03:41:49;0.13;;;0.03;;
46751;SDS011;32497;48.936;9.270;2024-03-29T03:46:51;0.00;;;0.00;;
46751;SDS011;32497;48.936;9.270;2024-03-29T03:51:53;0.10;;;0.00;;
46751;SDS011;32497;48.936;9.270;2024-03-29T03:56:57;0.17;;;0.10;;
46751;SDS011;32497;48.936;9.270;2024-03-29T04:01:59;0.67;;;0.00;;
46751;SDS011;32497;48.936;9.270;2024-03-29T04:07:02;0.00;;;0.00;;
46751;SDS011;32497;48.936;9.270;2024-03-29T04:12:06;0.40;;;0.10;;
46751;SDS011;32497;48.936;9.270;2024-03-29T04:17:08;0.00;;;0.00;;
46751;SDS011;32497;48.936;9.270;2024-03-29T04:22:11;0.00;;;0.00;;
46751;SDS011;32497;48.936;9.270;2024-03-29T04:27:14;0.20;;;0.00;;
46751;SDS011;32497;48.936;9.270;2024-03-29T04:32:17;0.30;;;0.10;;
46751;SDS011;32497;48.936;9.270;2024-03-29T04:37:19;0.10;;;0.03;;
46751;SDS011;32497;48.936;9.270;2024-03-29T04:42:23;0.00;;;0.00;;
46751;SDS011;32497;48.936;9.270;2024-03-29T04:47:25;0.00;;;0.00;;
46751;SDS011;32497;48.936;9.270;2024-03-29T04:52:28;0.60;;;0.20;;
46751;SDS011;32497;48.936;9.270;2024-03-29T04:57:31;0.53;;;0.00;;
46751;SDS011;32497;48.936;9.270;2024-03-29T05:02:34;0.10;;;0.10;;
46751;SDS011;32497;48.936;9.270;2024-03-29T05:07:37;0.10;;;0.00;;
46751;SDS011;32497;48.936;9.270;2024-03-29T05:12:40;0.00;;;0.00;;
46751;SDS011;32497;48.936;9.270;2024-03-29T05:17:42;20.57;;;0.20;;
46751;SDS011;32497;48.936;9.270;2024-03-29T05:22:45;0.03;;;0.00;;
46751;SDS011;32497;48.936;9.270;2024-03-29T05:27:49;0.00;;;0.00;;
46751;SDS011;32497;48.936;9.270;2024-03-29T05:32:51;0.13;;;0.03;;
46751;SDS011;32497;48.936;9.270;2024-03-29T05:37:54;0.20;;;0.00;;
46751;SDS011;32497;48.936;9.270;2024-03-29T05:42:57;0.00;;;0.00;;
46751;SDS011;32497;48.936;9.270;2024-03-29T05:47:59;0.00;;;0.00;;
46751;SDS011;32497;48.936;9.270;2024-03-29T05:53:02;0.57;;;0.10;;
46751;SDS011;32497;48.936;9.270;2024-03-29T05:58:06;0.00;;;0.00;;
46751;SDS011;32497;48.936;9.270;2024-03-29T06:03:09;0.10;;;0.00;;
46751;SDS011;32497;48.936;9.270;2024-03-29T06:08:11;0.03;;;0.00;;
46751;SDS011;32497;48.936;9.270;2024-03-29T06:13:15;0.07;;;0.07;;
46751;SDS011;32497;48.936;9.270;2024-03-29T06:18:30;1.03;;;0.40;;
46751;SDS011;32497;48.936;9.270;2024-03-29T06:23:33;0.20;;;0.10;;
46751;SDS011;32497;48.936;9.270;2024-03-29T06:28:36;0.20;;;0.10;;
46751;SDS011;32497;48.936;9.270;2024-03-29T06:33:39;0.33;;;0.10;;
46751;SDS011;32497;48.936;9.270;2024-03-29T06:38:41;0.07;;;0.00;;
46751;SDS011;32497;48.936;9.270;2024-03-29T06:43:45;0.87;;;0.47;;
46751;SDS011;32497;48.936;9.270;2024-03-29T06:48:47;0.23;;;0.10;;
46751;SDS011;32497;48.936;9.270;2024-03-29T06:53:50;0.40;;;0.10;;
46751;SDS011;32497;48.936;9.270;2024-03-29T06:58:53;0.10;;;0.10;;
46751;SDS011;32497;48.936;9.270;2024-03-29T07:03:56;0.30;;;0.10;;
46751;SDS011;32497;48.936;9.270;2024-03-29T07:08:58;0.67;;;0.17;;
46751;SDS011;32497;48.936;9.270;2024-03-29T07:14:02;1.00;;;0.10;;
46751;SDS011;32497;48.936;9.270;2024-03-29T07:19:05;0.30;;;0.10;;
46751;SDS011;32497;48.936;9.270;2024-03-29T07:24:07;0.10;;;0.00;;
46751;SDS011;32497;48.936;9.270;2024-03-29T07:29:11;0.27;;;0.10;;
46751;SDS011;32497;48.936;9.270;2024-03-29T07:34:13;0.27;;;0.10;;
46751;SDS011;32497;48.936;9.270;2024-03-29T07:39:15;0.33;;;0.10;;
46751;SDS011;32497;48.936;9.270;2024-03-29T07:44:19;0.30;;;0.10;;
46751;SDS011;32497;48.936;9.270;2024-03-29T07:49:21;0.73;;;0.10;;
46751;SDS011;32497;48.936;9.270;2024-03-29T07:54:24;6.07;;;0.30;;
46751;SDS011;32497;48.936;9.270;2024-03-29T07:59:27;0.53;;;0.30;;
46751;SDS011;32497;48.936;9.270;2024-03-29T08:04:30;1.07;;;0.23;;
46751;SDS011;32497;48.936;9.270;2024-03-29T08:09:32;0.30;;;0.20;;
46751;SDS011;32497;48.936;9.270;2024-03-29T08:14:36;0.10;;;0.00;;
46751;SDS011;32497;48.936;9.270;2024-03-29T08:19:39;0.10;;;0.10;;
46751;SDS011;32497;48.936;9.270;2024-03-29T08:24:42;0.20;;;0.17;;
46751;SDS011;32497;48.936;9.270;2024-03-29T08:29:46;0.77;;;0.30;;
46751;SDS011;32497;48.936;9.270;2024-03-29T08:34:49;0.60;;;0.10;;
46751;SDS011;32497;48.936;9.270;2024-03-29T08:39:53;0.73;;;0.20;;
46751;SDS011;32497;48.936;9.270;2024-03-29T08:44:56;0.20;;;0.10;;
46751;SDS011;32497;48.936;9.270;2024-03-29T08:50:00;0.00;;;0.00;;
46751;SDS011;32497;48.936;9.270;2024-03-29T08:55:04;0.30;;;0.10;;
46751;SDS011;32497;48.936;9.270;2024-03-29T09:00:09;0.73;;;0.10;;
46751;SDS011;32497;48.936;9.270;2024-03-29T09:05:12;0.60;;;0.37;;
46751;SDS011;32497;48.936;9.270;2024-03-29T09:10:14;0.10;;;0.10;;
46751;SDS011;32497;48.936;9.270;2024-03-29T09:15:18;0.20;;;0.20;;
46751;SDS011;32497;48.936;9.270;2024-03-29T09:20:20;0.10;;;0.00;;
46751;SDS011;32497;48.936;9.270;2024-03-29T09:25:23;0.00;;;0.00;;
46751;SDS011;32497;48.936;9.270;2024-03-29T09:30:26;0.10;;;0.10;;
46751;SDS011;32497;48.936;9.270;2024-03-29T09:35:28;0.10;;;0.10;;
46751;SDS011;32497;48.936;9.270;2024-03-29T09:40:31;0.87;;;0.40;;
46751;SDS011;32497;48.936;9.270;2024-03-29T09:45:36;0.60;;;0.30;;
46751;SDS011;32497;48.936;9.270;2024-03-29T09:50:39;0.60;;;0.20;;
46751;SDS011;32497;48.936;9.270;2024-03-29T09:55:41;0.63;;;0.57;;
46751;SDS011;32497;48.936;9.270;2024-03-29T10:00:45;0.40;;;0.20;;
46751;SDS011;32497;48.936;9.270;2024-03-29T10:05:47;3.30;;;0.30;;
46751;SDS011;32497;48.936;9.270;2024-03-29T10:10:50;0.20;;;0.13;;
46751;SDS011;32497;48.936;9.270;2024-03-29T10:15:55;0.27;;;0.10;;
46751;SDS011;32497;48.936;9.270;2024-03-29T10:20:58;1.27;;;0.50;;
46751;SDS011;32497;48.936;9.270;2024-03-29T10:26:01;0.50;;;0.30;;
46751;SDS011;32497;48.936;9.270;2024-03-29T10:31:06;0.30;;;0.20;;
46751;SDS011;32497;48.936;9.270;2024-03-29T10:36:08;0.47;;;0.27;;
46751;SDS011;32497;48.936;9.270;2024-03-29T10:41:12;0.30;;;0.20;;
46751;SDS011;32497;48.936;9.270;2024-03-29T10:46:16;1.27;;;0.67;;
46751;SDS011;32497;48.936;9.270;2024-03-29T10:51:21;1.87;;;0.97;;
46751;SDS011;32497;48.936;9.270;2024-03-29T10:56:24;2.23;;;0.40;;
46751;SDS011;32497;48.936;9.270;2024-03-29T11:01:29;0.47;;;0.33;;
46751;SDS011;32497;48.936;9.270;2024-03-29T11:06:33;0.70;;;0.40;;
46751;SDS011;32497;48.936;9.270;2024-03-29T11:11:38;1.27;;;0.30;;
46751;SDS011;32497;48.936;9.270;2024-03-29T11:16:44;0.50;;;0.30;;
46751;SDS011;32497;48.936;9.270;2024-03-29T11:21:49;0.67;;;0.30;;
46751;SDS011;32497;48.936;9.270;2024-03-29T11:26:52;2.20;;;0.20;;
46751;SDS011;32497;48.936;9.270;2024-03-29T11:31:58;0.63;;;0.23;;
46751;SDS011;32497;48.936;9.270;2024-03-29T11:37:07;0.75;;;0.13;;
46751;SDS011;32497;48.936;9.270;2024-03-29T11:42:09;0.25;;;0.17;;
46751;SDS011;32497;48.936;9.270;2024-03-29T11:47:13;0.80;;;0.50;;
46751;SDS011;32497;48.936;9.270;2024-03-29T11:52:18;1.08;;;0.30;;
46751;SDS011;32497;48.936;9.270;2024-03-29T11:57:21;1.05;;;0.30;;
46751;SDS011;32497;48.936;9.270;2024-03-29T12:02:25;0.80;;;0.40;;
46751;SDS011;32497;48.936;9.270;2024-03-29T12:07:27;0.65;;;0.30;;
46751;SDS011;32497;48.936;9.270;2024-03-29T12:12:30;0.60;;;0.50;;
46751;SDS011;32497;48.936;9.270;2024-03-29T12:17:39;0.57;;;0.25;;
46751;SDS011;32497;48.936;9.270;2024-03-29T12:22:42;1.05;;;0.40;;
46751;SDS011;32497;48.936;9.270;2024-03-29T12:27:45;1.00;;;0.10;;
46751;SDS011;32497;48.936;9.270;2024-03-29T12:32:50;0.40;;;0.20;;
46751;SDS011;32497;48.936;9.270;2024-03-29T12:38:03;0.90;;;0.32;;
46751;SDS011;32497;48.936;9.270;2024-03-29T12:43:07;1.58;;;0.20;;
46751;SDS011;32497;48.936;9.270;2024-03-29T12:48:11;0.60;;;0.20;;
46751;SDS011;32497;48.936;9.270;2024-03-29T12:53:15;0.82;;;0.30;;
46751;SDS011;32497;48.936;9.270;2024-03-29T12:58:18;0.77;;;0.45;;
46751;SDS011;32497;48.936;9.270;2024-03-29T13:03:24;0.90;;;0.68;;
46751;SDS011;32497;48.936;9.270;2024-03-29T13:08:26;1.58;;;0.60;;
46751;SDS011;32497;48.936;9.270;2024-03-29T13:13:29;2.40;;;0.50;;
46751;SDS011;32497;48.936;9.270;2024-03-29T13:18:32;0.85;;;0.40;;
46751;SDS011;32497;48.936;9.270;2024-03-29T13:23:35;1.30;;;0.50;;
46751;SDS011;32497;48.936;9.270;2024-03-29T13:28:37;1.02;;;0.82;;
46751;SDS011;32497;48.936;9.270;2024-03-29T13:33:41;4.22;;;0.60;;
46751;SDS011;32497;48.936;9.270;2024-03-29T13:38:43;0.75;;;0.30;;
46751;SDS011;32497;48.936;9.270;2024-03-29T13:43:45;0.20;;;0.10;;
46751;SDS011;32497;48.936;9.270;2024-03-29T13:48:49;0.40;;;0.35;;
46751;SDS011;32497;48.936;9.270;2024-03-29T13:53:51;0.20;;;0.20;;
46751;SDS011;32497;48.936;9.270;2024-03-29T13:58:54;0.10;;;0.10;;
46751;SDS011;32497;48.936;9.270;2024-03-29T14:03:58;0.10;;;0.10;;
46751;SDS011;32497;48.936;9.270;2024-03-29T14:09:00;0.65;;;0.17;;
46751;SDS011;32497;48.936;9.270;2024-03-29T14:14:02;0.70;;;0.10;;
46751;SDS011;32497;48.936;9.270;2024-03-29T14:19:09;0.28;;;0.13;;
46751;SDS011;32497;48.936;9.270;2024-03-29T14:24:11;0.40;;;0.20;;
46751;SDS011;32497;48.936;9.270;2024-03-29T14:29:14;0.20;;;0.13;;
46751;SDS011;32497;48.936;9.270;2024-03-29T14:34:19;0.38;;;0.20;;
46751;SDS011;32497;48.936;9.270;2024-03-29T14:39:22;0.38;;;0.38;;
46751;SDS011;32497;48.936;9.270;2024-03-29T14:44:24;0.35;;;0.20;;
46751;SDS011;32497;48.936;9.270;2024-03-29T14:49:28;0.60;;;0.47;;
46751;SDS011;32497;48.936;9.270;2024-03-29T14:54:30;0.68;;;0.20;;
46751;SDS011;32497;48.936;9.270;2024-03-29T14:59:32;0.52;;;0.40;;
46751;SDS011;32497;48.936;9.270;2024-03-29T15:04:38;0.55;;;0.40;;
46751;SDS011;32497;48.936;9.270;2024-03-29T15:09:40;0.50;;;0.47;;
46751;SDS011;32497;48.936;9.270;2024-03-29T15:14:43;0.35;;;0.30;;
46751;SDS011;32497;48.936;9.270;2024-03-29T15:19:46;0.50;;;0.40;;
46751;SDS011;32497;48.936;9.270;2024-03-29T15:24:51;0.93;;;0.30;;
46751;SDS011;32497;48.936;9.270;2024-03-29T15:29:54;0.30;;;0.30;;
46751;SDS011;32497;48.936;9.270;2024-03-29T15:34:58;0.60;;;0.30;;
46751;SDS011;32497;48.936;9.270;2024-03-29T15:40:00;1.95;;;0.30;;
46751;SDS011;32497;48.936;9.270;2024-03-29T15:45:03;0.20;;;0.10;;
46751;SDS011;32497;48.936;9.270;2024-03-29T15:50:07;0.70;;;0.20;;
46751;SDS011;32497;48.936;9.270;2024-03-29T15:55:10;0.43;;;0.30;;
46751;SDS011;32497;48.936;9.270;2024-03-29T16:00:13;0.85;;;0.30;;
46751;SDS011;32497;48.936;9.270;2024-03-29T16:05:18;2.72;;;0.50;;
46751;SDS011;32497;48.936;9.270;2024-03-29T16:10:20;0.73;;;0.35;;
46751;SDS011;32497;48.936;9.270;2024-03-29T16:15:22;0.17;;;0.10;;
46751;SDS011;32497;48.936;9.270;2024-03-29T16:20:26;0.45;;;0.20;;
46751;SDS011;32497;48.936;9.270;2024-03-29T16:25:28;0.32;;;0.10;;
46751;SDS011;32497;48.936;9.270;2024-03-29T16:30:30;0.68;;;0.40;;
46751;SDS011;32497;48.936;9.270;2024-03-29T16:35:34;1.30;;;0.10;;
46751;SDS011;32497;48.936;9.270;2024-03-29T16:40:37;0.47;;;0.28;;
46751;SDS011;32497;48.936;9.270;2024-03-29T16:45:40;0.20;;;0.20;;
46751;SDS011;32497;48.936;9.270;2024-03-29T16:50:44;1.13;;;0.55;;
46751;SDS011;32497;48.936;9.270;2024-03-29T16:55:47;0.57;;;0.20;;
46751;SDS011;32497;48.936;9.270;2024-03-29T17:00:50;2.70;;;0.63;;
46751;SDS011;32497;48.936;9.270;2024-03-29T17:05:53;0.65;;;0.17;;
46751;SDS011;32497;48.936;9.270;2024-03-29T17:10:55;0.70;;;0.20;;
46751;SDS011;32497;48.936;9.270;2024-03-29T17:15:58;0.80;;;0.20;;
46751;SDS011;32497;48.936;9.270;2024-03-29T17:21:01;0.77;;;0.40;;
46751;SDS011;32497;48.936;9.270;2024-03-29T17:26:04;0.30;;;0.10;;
46751;SDS011;32497;48.936;9.270;2024-03-29T17:31:06;0.60;;;0.43;;
46751;SDS011;32497;48.936;9.270;2024-03-29T17:36:10;0.47;;;0.25;;
46751;SDS011;32497;48.936;9.270;2024-03-29T17:41:12;1.27;;;0.38;;
46751;SDS011;32497;48.936;9.270;2024-03-29T17:46:14;0.20;;;0.20;;
46751;SDS011;32497;48.936;9.270;2024-03-29T17:51:18;0.77;;;0.30;;
46751;SDS011;32497;48.936;9.270;2024-03-29T17:56:20;0.82;;;0.22;;
46751;SDS011;32497;48.936;9.270;2024-03-29T18:01:23;0.50;;;0.20;;
46751;SDS011;32497;48.936;9.270;2024-03-29T18:06:27;1.13;;;0.30;;
46751;SDS011;32497;48.936;9.270;2024-03-29T18:11:29;0.63;;;0.30;;
46751;SDS011;32497;48.936;9.270;2024-03-29T18:16:31;0.60;;;0.30;;
46751;SDS011;32497;48.936;9.270;2024-03-29T18:21:35;0.30;;;0.20;;
46751;SDS011;32497;48.936;9.270;2024-03-29T18:26:39;2.17;;;0.67;;
46751;SDS011;32497;48.936;9.270;2024-03-29T18:31:41;1.10;;;0.30;;
46751;SDS011;32497;48.936;9.270;2024-03-29T18:36:45;1.37;;;0.47;;
46751;SDS011;32497;48.936;9.270;2024-03-29T18:41:48;0.53;;;0.30;;
46751;SDS011;32497;48.936;9.270;2024-03-29T18:46:50;1.97;;;0.47;;
46751;SDS011;32497;48.936;9.270;2024-03-29T18:51:53;0.57;;;0.40;;
46751;SDS011;32497;48.936;9.270;2024-03-29T18:56:56;0.73;;;0.53;;
46751;SDS011;32497;48.936;9.270;2024-03-29T19:02:00;0.87;;;0.30;;
46751;SDS011;32497;48.936;9.270;2024-03-29T19:07:04;0.60;;;0.40;;
46751;SDS011;32497;48.936;9.270;2024-03-29T19:12:07;1.23;;;0.50;;
46751;SDS011;32497;48.936;9.270;2024-03-29T19:17:09;2.33;;;0.50;;
46751;SDS011;32497;48.936;9.270;2024-03-29T19:22:13;0.70;;;0.30;;
46751;SDS011;32497;48.936;9.270;2024-03-29T19:27:15;1.17;;;0.60;;
46751;SDS011;32497;48.936;9.270;2024-03-29T19:32:19;0.87;;;0.40;;
46751;SDS011;32497;48.936;9.270;2024-03-29T19:37:23;0.60;;;0.20;;
46751;SDS011;32497;48.936;9.270;2024-03-29T19:42:27;0.37;;;0.30;;
46751;SDS011;32497;48.936;9.270;2024-03-29T19:47:30;0.90;;;0.30;;
46751;SDS011;32497;48.936;9.270;2024-03-29T19:52:34;4.33;;;0.60;;
46751;SDS011;32497;48.936;9.270;2024-03-29T19:57:36;1.10;;;0.40;;
46751;SDS011;32497;48.936;9.270;2024-03-29T20:02:38;2.97;;;0.40;;
46751;SDS011;32497;48.936;9.270;2024-03-29T20:07:42;0.70;;;0.50;;
46751;SDS011;32497;48.936;9.270;2024-03-29T20:12:45;1.37;;;0.87;;
46751;SDS011;32497;48.936;9.270;2024-03-29T20:17:47;1.37;;;0.80;;
46751;SDS011;32497;48.936;9.270;2024-03-29T20:22:51;5.10;;;0.70;;
46751;SDS011;32497;48.936;9.270;2024-03-29T20:27:53;1.33;;;0.60;;
46751;SDS011;32497;48.936;9.270;2024-03-29T20:32:55;7.13;;;0.83;;
46751;SDS011;32497;48.936;9.270;2024-03-29T20:37:59;0.60;;;0.50;;
46751;SDS011;32497;48.936;9.270;2024-03-29T20:43:01;1.07;;;0.70;;
46751;SDS011;32497;48.936;9.270;2024-03-29T20:48:04;3.27;;;0.60;;
46751;SDS011;32497;48.936;9.270;2024-03-29T20:53:09;1.37;;;0.50;;
46751;SDS011;32497;48.936;9.270;2024-03-29T20:58:12;0.43;;;0.40;;
46751;SDS011;32497;48.936;9.270;2024-03-29T21:03:14;1.30;;;0.67;;
46751;SDS011;32497;48.936;9.270;2024-03-29T21:08:35;1.90;;;0.83;;
46751;SDS011;32497;48.936;9.270;2024-03-29T21:13:38;1.03;;;0.63;;
46751;SDS011;32497;48.936;9.270;2024-03-29T21:18:41;0.97;;;0.50;;
46751;SDS011;32497;48.936;9.270;2024-03-29T21:23:44;2.23;;;1.03;;
46751;SDS011;32497;48.936;9.270;2024-03-29T21:28:47;9.57;;;1.30;;
46751;SDS011;32497;48.936;9.270;2024-03-29T21:33:50;2.17;;;0.70;;
46751;SDS011;32497;48.936;9.270;2024-03-29T21:38:54;1.50;;;0.70;;
46751;SDS011;32497;48.936;9.270;2024-03-29T21:43:56;1.83;;;0.90;;
46751;SDS011;32497;48.936;9.270;2024-03-29T21:48:58;1.50;;;0.70;;
46751;SDS011;32497;48.936;9.270;2024-03-29T21:54:02;1.10;;;0.70;;
46751;SDS011;32497;48.936;9.270;2024-03-29T21:59:04;1.37;;;0.63;;
46751;SDS011;32497;48.936;9.270;2024-03-29T22:04:06;1.10;;;0.70;;
46751;SDS011;32497;48.936;9.270;2024-03-29T22:09:10;1.43;;;0.50;;
46751;SDS011;32497;48.936;9.270;2024-03-29T22:14:13;7.73;;;0.90;;
46751;SDS011;32497;48.936;9.270;2024-03-29T22:19:15;0.83;;;0.50;;
46751;SDS011;32497;48.936;9.270;2024-03-29T22:24:19;0.93;;;0.50;;
46751;SDS011;32497;48.936;9.270;2024-03-29T22:29:21;2.50;;;1.00;;
46751;SDS011;32497;48.936;9.270;2024-03-29T22:34:23;1.13;;;0.40;;
46751;SDS011;32497;48.936;9.270;2024-03-29T22:39:28;4.07;;;0.77;;
46751;SDS011;32497;48.936;9.270;2024-03-29T22:44:30;1.87;;;0.63;;
46751;SDS011;32497;48.936;9.270;2024-03-29T22:49:33;1.73;;;0.77;;
46751;SDS011;32497;48.936;9.270;2024-03-29T22:54:37;0.77;;;0.50;;
46751;SDS011;32497;48.936;9.270;2024-03-29T22:59:39;2.10;;;0.60;;
46751;SDS011;32497;48.936;9.270;2024-03-29T23:04:42;1.60;;;0.93;;
46751;SDS011;32497;48.936;9.270;2024-03-29T23:09:45;2.00;;;0.63;;
46751;SDS011;32497;48.936;9.270;2024-03-29T23:14:47;1.73;;;0.63;;
46751;SDS011;32497;48.936;9.270;2024-03-29T23:19:51;2.43;;;0.70;;
46751;SDS011;32497;48.936;9.270;2024-03-29T23:24:55;0.97;;;0.67;;
46751;SDS011;32497;48.936;9.270;2024-03-29T23:29:57;3.27;;;0.90;;
46751;SDS011;32497;48.936;9.270;2024-03-29T23:35:00;1.40;;;0.63;;
46751;SDS011;32497;48.936;9.270;2024-03-29T23:40:03;2.33;;;0.93;;
46751;SDS011;32497;48.936;9.270;2024-03-29T23:45:06;2.13;;;0.70;;
46751;SDS011;32497;48.936;9.270;2024-03-29T23:50:09;2.80;;;1.93;;
46751;SDS011;32497;48.936;9.270;2024-03-29T23:55:12;2.43;;;1.30;;
